PEV101 LOWW-LSZR
Flight info
| Callsign | PEV101 |
|---|---|
| Flight time | N/A |
| Altitude | 30000 |
| Route | ODSU2C SOVIL DCT SITNI DCT BAGSI DCT MATIG DCT TRAUN L856 KPT KPT4H |
| Aircraft | E170/M-SDE3GILORVW/S |
Departure
| Time | 2026-05-07 13:35 |
|---|---|
| Airport | Vienna International Airport (LOWW) |
Arrival
| Time | N/A |
|---|---|
| Airport | Sankt Gallen Altenrhein Airport (LSZR) |
| Time | Latitude | Longitude | Altitude | Speed | Heading |
|---|---|---|---|---|---|
| 2026-05-07 13:19 | 48.12122 | 16.55687 | 606 ft | 0 kts | 116° |
| 2026-05-07 13:26 | 48.12122 | 16.55688 | 606 ft | 0 kts | 116° |
| 2026-05-07 13:27 | 48.12126 | 16.55673 | 606 ft | 2 kts | 116° |
| 2026-05-07 13:27 | 48.12133 | 16.55653 | 606 ft | 2 kts | 116° |
| 2026-05-07 13:27 | 48.12139 | 16.55633 | 606 ft | 2 kts | 116° |
| 2026-05-07 13:27 | 48.12146 | 16.55614 | 606 ft | 2 kts | 133° |
| 2026-05-07 13:28 | 48.12156 | 16.55603 | 606 ft | 1 kts | 152° |
| 2026-05-07 13:28 | 48.12157 | 16.55602 | 606 ft | 0 kts | 152° |
| 2026-05-07 13:30 | 48.12144 | 16.55600 | 606 ft | 3 kts | 207° |
| 2026-05-07 13:30 | 48.12106 | 16.55574 | 606 ft | 7 kts | 206° |
| 2026-05-07 13:31 | 48.12051 | 16.55534 | 606 ft | 9 kts | 206° |
| 2026-05-07 13:31 | 48.11987 | 16.55487 | 606 ft | 10 kts | 207° |
| 2026-05-07 13:31 | 48.11916 | 16.55437 | 606 ft | 11 kts | 196° |
| 2026-05-07 13:31 | 48.11832 | 16.55428 | 606 ft | 12 kts | 171° |
| 2026-05-07 13:32 | 48.11779 | 16.55523 | 606 ft | 13 kts | 116° |
| 2026-05-07 13:32 | 48.11731 | 16.55669 | 606 ft | 17 kts | 116° |
| 2026-05-07 13:32 | 48.11673 | 16.55849 | 606 ft | 22 kts | 116° |
| 2026-05-07 13:32 | 48.11591 | 16.56100 | 606 ft | 28 kts | 116° |
| 2026-05-07 13:33 | 48.11504 | 16.56366 | 606 ft | 28 kts | 117° |
| 2026-05-07 13:33 | 48.11417 | 16.56637 | 606 ft | 26 kts | 116° |
| 2026-05-07 13:33 | 48.11331 | 16.56772 | 606 ft | 15 kts | 193° |
| 2026-05-07 13:33 | 48.11295 | 16.56634 | 606 ft | 15 kts | 268° |
| 2026-05-07 13:34 | 48.11292 | 16.56459 | 606 ft | 18 kts | 272° |
| 2026-05-07 13:34 | 48.11325 | 16.56272 | 606 ft | 12 kts | 296° |
| 2026-05-07 13:34 | 48.11489 | 16.55757 | 606 ft | 94 kts | 294° |
| 2026-05-07 13:35 | 48.11891 | 16.54579 | 620 ft | 156 kts | 296° |
| 2026-05-07 13:35 | 48.12400 | 16.53018 | 1081 ft | 178 kts | 294° |
| 2026-05-07 13:35 | 48.12477 | 16.51095 | 1620 ft | 200 kts | 250° |
| 2026-05-07 13:35 | 48.11717 | 16.49395 | 2526 ft | 202 kts | 233° |
| 2026-05-07 13:36 | 48.10873 | 16.47785 | 3509 ft | 199 kts | 234° |
| 2026-05-07 13:36 | 48.10086 | 16.46230 | 4350 ft | 189 kts | 235° |
| 2026-05-07 13:36 | 48.09215 | 16.44490 | 4543 ft | 229 kts | 234° |
| 2026-05-07 13:36 | 48.08180 | 16.42426 | 4862 ft | 261 kts | 235° |
| 2026-05-07 13:37 | 48.07067 | 16.40191 | 5529 ft | 275 kts | 235° |
| 2026-05-07 13:37 | 48.05929 | 16.37898 | 6468 ft | 278 kts | 235° |
| 2026-05-07 13:37 | 48.04941 | 16.35489 | 7444 ft | 276 kts | 254° |
| 2026-05-07 13:37 | 48.04767 | 16.32673 | 8367 ft | 276 kts | 270° |
| 2026-05-07 13:38 | 48.04808 | 16.29810 | 9198 ft | 279 kts | 269° |
| 2026-05-07 13:38 | 48.04822 | 16.26885 | 9995 ft | 283 kts | 268° |
| 2026-05-07 13:38 | 48.04821 | 16.23968 | 10771 ft | 287 kts | 268° |
| 2026-05-07 13:38 | 48.04812 | 16.20948 | 11443 ft | 295 kts | 268° |
| 2026-05-07 13:39 | 48.04800 | 16.17826 | 12060 ft | 305 kts | 268° |
| 2026-05-07 13:39 | 48.04785 | 16.14635 | 12678 ft | 313 kts | 268° |
| 2026-05-07 13:39 | 48.04769 | 16.11373 | 13406 ft | 317 kts | 268° |
| 2026-05-07 13:39 | 48.04751 | 16.08070 | 14194 ft | 318 kts | 267° |
| 2026-05-07 13:40 | 48.04733 | 16.04821 | 14960 ft | 319 kts | 267° |
| 2026-05-07 13:40 | 48.04712 | 16.01474 | 15708 ft | 322 kts | 266° |
| 2026-05-07 13:40 | 48.04691 | 15.98136 | 16412 ft | 325 kts | 266° |
| 2026-05-07 13:40 | 48.04669 | 15.94787 | 17087 ft | 328 kts | 266° |
| 2026-05-07 13:41 | 48.04645 | 15.91366 | 17728 ft | 331 kts | 265° |
| 2026-05-07 13:41 | 48.04620 | 15.87932 | 18349 ft | 335 kts | 265° |
| 2026-05-07 13:41 | 48.04593 | 15.84454 | 18983 ft | 338 kts | 265° |
| 2026-05-07 13:41 | 48.04565 | 15.80933 | 19618 ft | 341 kts | 265° |
| 2026-05-07 13:42 | 48.04536 | 15.77411 | 20240 ft | 344 kts | 265° |
| 2026-05-07 13:42 | 48.04506 | 15.73803 | 20877 ft | 347 kts | 265° |
| 2026-05-07 13:42 | 48.04475 | 15.70229 | 21485 ft | 350 kts | 265° |
| 2026-05-07 13:42 | 48.04441 | 15.66554 | 22090 ft | 353 kts | 264° |
| 2026-05-07 13:43 | 48.04407 | 15.62928 | 22701 ft | 355 kts | 264° |
| 2026-05-07 13:43 | 48.04371 | 15.59225 | 23309 ft | 358 kts | 264° |
| 2026-05-07 13:43 | 48.04333 | 15.55497 | 23882 ft | 361 kts | 264° |
| 2026-05-07 13:43 | 48.04295 | 15.51730 | 24436 ft | 364 kts | 264° |
| 2026-05-07 13:44 | 48.04254 | 15.47985 | 25000 ft | 366 kts | 264° |
| 2026-05-07 13:44 | 48.04212 | 15.44182 | 25555 ft | 368 kts | 264° |
| 2026-05-07 13:44 | 48.04169 | 15.40347 | 26076 ft | 370 kts | 264° |
| 2026-05-07 13:44 | 48.04124 | 15.36527 | 26605 ft | 372 kts | 263° |
| 2026-05-07 13:45 | 48.04077 | 15.32662 | 27068 ft | 375 kts | 263° |
| 2026-05-07 13:45 | 48.04029 | 15.28759 | 27528 ft | 378 kts | 263° |
| 2026-05-07 13:45 | 48.03978 | 15.24793 | 27998 ft | 380 kts | 263° |
| 2026-05-07 13:45 | 48.03927 | 15.20862 | 28442 ft | 383 kts | 262° |
| 2026-05-07 13:46 | 48.03873 | 15.16841 | 28919 ft | 385 kts | 262° |
| 2026-05-07 13:46 | 48.03819 | 15.12885 | 29353 ft | 387 kts | 262° |
| 2026-05-07 13:46 | 48.03762 | 15.08860 | 29774 ft | 389 kts | 262° |
| 2026-05-07 13:46 | 48.03701 | 15.04733 | 29938 ft | 398 kts | 262° |
| 2026-05-07 13:47 | 48.03639 | 15.00564 | 29957 ft | 409 kts | 262° |
| 2026-05-07 13:47 | 48.03535 | 14.93698 | 29964 ft | 420 kts | 263° |
| 2026-05-07 13:48 | 48.03373 | 14.83508 | 29960 ft | 420 kts | 263° |
| 2026-05-07 13:48 | 48.03225 | 14.74751 | 29951 ft | 419 kts | 263° |
| 2026-05-07 13:49 | 48.03071 | 14.65996 | 29963 ft | 420 kts | 263° |
| 2026-05-07 13:49 | 48.02911 | 14.57311 | 29965 ft | 420 kts | 263° |
| 2026-05-07 13:50 | 48.02744 | 14.48564 | 29967 ft | 420 kts | 263° |
| 2026-05-07 13:50 | 48.02659 | 14.44247 | 29965 ft | 420 kts | 263° |